Pagina principală
METAR-TAF:

METAR-TAF

Aeroporturi :

Futuna, Franța

Latitudine: 14-19S, longitudine: 178-07W, elevație: 6 m

METAR: lipsă

Ora: 00:20 (12:20 UTC)

Prognoză

Raportul a fost făcut în urmă cu 1 oră și 20 de minute, la 11:00 UTC
Prognoză valabilă de la 28 ora 12 UTC la 29 ora 12 UTC
Vânt 8 kt de la Sud/Sud-est
Vizibilitate de 10 km sau mai mult
Nori puțini la o înălțime de 2500 picior
Temporar
de la 28 ora 12 UTC la 28 ora 22 UTC
Vizibilitate: 4500 m
Nori puțini la o înălțime de 2000 picior, Cumulus congestus.
averse de ploaie

TAF: NLWF 281100Z 2812/2912 16008KT 9999 FEW025 TEMPO 2812/2822 4500 SHRA FEW020TCU

Observații și prognoze meteo pentru peste 4.000 de aeroporturi (rapoarte METAR și TAF).

Stațiile disponibile sunt reprezentate pe hartă prin puncte galbene și roșii.

Țineți indicatorul mouse-ului pe punctul dorit pentru a vedea denumirea stației.

Apoi, faceți clic pentru a vedea observațiile și prognozele meteorologice.

Pentru a schimba harta: Pentru mărire, faceți clic pe butoanele verzi cu cruce neagră; pentru micșorare, pe butonul verde cu o liniuță; pentru hărți învecinate, pe săgețile verzi.


METAR-TAF: